sensor_id;sensor_type;location;lat;lon;timestamp;pressure;altitude;pressure_sealevel;temperature;humidity
8575;BME280;4325;42.520;27.448;2024-02-21T00:01:58;101900.19;;;6.92;100.00
8575;BME280;4325;42.520;27.448;2024-02-21T00:04:25;101902.06;;;6.91;100.00
8575;BME280;4325;42.520;27.448;2024-02-21T00:06:52;101898.69;;;6.96;100.00
8575;BME280;4325;42.520;27.448;2024-02-21T00:09:19;101911.84;;;6.99;100.00
8575;BME280;4325;42.520;27.448;2024-02-21T00:11:46;101906.88;;;6.96;100.00
8575;BME280;4325;42.520;27.448;2024-02-21T00:14:15;101909.41;;;6.91;100.00
8575;BME280;4325;42.520;27.448;2024-02-21T00:16:42;101906.50;;;6.86;100.00
8575;BME280;4325;42.520;27.448;2024-02-21T00:19:09;101917.47;;;6.73;100.00
8575;BME280;4325;42.520;27.448;2024-02-21T00:21:36;101919.16;;;6.74;100.00
8575;BME280;4325;42.520;27.448;2024-02-21T00:24:04;101915.16;;;6.70;100.00
8575;BME280;4325;42.520;27.448;2024-02-21T00:26:31;101909.59;;;6.58;100.00
8575;BME280;4325;42.520;27.448;2024-02-21T00:28:58;101906.91;;;6.51;100.00
8575;BME280;4325;42.520;27.448;2024-02-21T00:31:27;101905.44;;;6.49;100.00
8575;BME280;4325;42.520;27.448;2024-02-21T00:33:54;101904.78;;;6.53;100.00
8575;BME280;4325;42.520;27.448;2024-02-21T00:36:21;101897.84;;;6.57;100.00
8575;BME280;4325;42.520;27.448;2024-02-21T00:38:48;101894.72;;;6.60;100.00
8575;BME280;4325;42.520;27.448;2024-02-21T00:41:15;101890.50;;;6.64;100.00
8575;BME280;4325;42.520;27.448;2024-02-21T00:43:42;101881.28;;;6.65;100.00
8575;BME280;4325;42.520;27.448;2024-02-21T00:46:09;101886.69;;;6.72;100.00
8575;BME280;4325;42.520;27.448;2024-02-21T00:48:37;101882.09;;;6.73;100.00
8575;BME280;4325;42.520;27.448;2024-02-21T00:51:04;101884.97;;;6.78;100.00
8575;BME280;4325;42.520;27.448;2024-02-21T00:53:31;101881.84;;;6.81;100.00
8575;BME280;4325;42.520;27.448;2024-02-21T00:55:59;101873.06;;;6.79;100.00
8575;BME280;4325;42.520;27.448;2024-02-21T00:58:26;101871.56;;;6.83;100.00
8575;BME280;4325;42.520;27.448;2024-02-21T01:00:53;101874.44;;;6.88;100.00
8575;BME280;4325;42.520;27.448;2024-02-21T01:03:20;101867.34;;;6.87;100.00
8575;BME280;4325;42.520;27.448;2024-02-21T01:05:48;101867.34;;;6.87;100.00
8575;BME280;4325;42.520;27.448;2024-02-21T01:08:15;101859.34;;;6.92;100.00
8575;BME280;4325;42.520;27.448;2024-02-21T01:10:42;101860.44;;;6.84;100.00
8575;BME280;4325;42.520;27.448;2024-02-21T01:13:09;101860.06;;;6.81;100.00
8575;BME280;4325;42.520;27.448;2024-02-21T01:15:36;101857.78;;;6.78;100.00
8575;BME280;4325;42.520;27.448;2024-02-21T01:18:04;101877.06;;;6.70;100.00
8575;BME280;4325;42.520;27.448;2024-02-21T01:20:32;101867.50;;;6.60;100.00
8575;BME280;4325;42.520;27.448;2024-02-21T01:23:00;101865.69;;;6.48;100.00
8575;BME280;4325;42.520;27.448;2024-02-21T01:25:27;101865.31;;;6.38;100.00
8575;BME280;4325;42.520;27.448;2024-02-21T01:27:54;101864.31;;;6.32;100.00
8575;BME280;4325;42.520;27.448;2024-02-21T01:30:21;101863.06;;;6.28;100.00
8575;BME280;4325;42.520;27.448;2024-02-21T01:32:49;101863.94;;;6.22;100.00
8575;BME280;4325;42.520;27.448;2024-02-21T01:35:16;101859.53;;;6.21;100.00
8575;BME280;4325;42.520;27.448;2024-02-21T01:37:43;101858.09;;;6.12;100.00
8575;BME280;4325;42.520;27.448;2024-02-21T01:40:12;101861.88;;;6.11;100.00
8575;BME280;4325;42.520;27.448;2024-02-21T01:42:39;101864.38;;;6.06;100.00
8575;BME280;4325;42.520;27.448;2024-02-21T01:45:07;101856.91;;;5.95;100.00
8575;BME280;4325;42.520;27.448;2024-02-21T01:47:34;101860.28;;;5.84;100.00
8575;BME280;4325;42.520;27.448;2024-02-21T01:50:03;101855.25;;;5.74;100.00
8575;BME280;4325;42.520;27.448;2024-02-21T01:52:31;101861.13;;;5.65;100.00
8575;BME280;4325;42.520;27.448;2024-02-21T01:54:58;101867.00;;;5.55;100.00
8575;BME280;4325;42.520;27.448;2024-02-21T01:57:27;101865.97;;;5.50;100.00
8575;BME280;4325;42.520;27.448;2024-02-21T01:59:54;101861.38;;;5.44;100.00
8575;BME280;4325;42.520;27.448;2024-02-21T02:02:21;101867.00;;;5.35;100.00
8575;BME280;4325;42.520;27.448;2024-02-21T02:04:49;101859.94;;;5.28;100.00
8575;BME280;4325;42.520;27.448;2024-02-21T02:07:16;101869.31;;;5.19;100.00
8575;BME280;4325;42.520;27.448;2024-02-21T02:09:43;101862.00;;;5.19;100.00
8575;BME280;4325;42.520;27.448;2024-02-21T02:12:10;101864.13;;;5.17;100.00
8575;BME280;4325;42.520;27.448;2024-02-21T02:14:39;101872.25;;;5.11;100.00
8575;BME280;4325;42.520;27.448;2024-02-21T02:17:06;101867.44;;;5.06;100.00
8575;BME280;4325;42.520;27.448;2024-02-21T02:19:34;101871.63;;;5.02;100.00
8575;BME280;4325;42.520;27.448;2024-02-21T02:22:09;101880.38;;;4.98;100.00
8575;BME280;4325;42.520;27.448;2024-02-21T02:24:38;101876.59;;;4.92;100.00
8575;BME280;4325;42.520;27.448;2024-02-21T02:27:05;101872.88;;;4.87;100.00
8575;BME280;4325;42.520;27.448;2024-02-21T02:29:32;101879.09;;;4.87;100.00
8575;BME280;4325;42.520;27.448;2024-02-21T02:31:59;101879.09;;;4.87;100.00
8575;BME280;4325;42.520;27.448;2024-02-21T02:34:26;101877.44;;;4.86;100.00
8575;BME280;4325;42.520;27.448;2024-02-21T02:36:53;101874.13;;;4.84;100.00
8575;BME280;4325;42.520;27.448;2024-02-21T02:39:21;101869.94;;;4.82;100.00
8575;BME280;4325;42.520;27.448;2024-02-21T02:41:49;101873.47;;;4.82;100.00
8575;BME280;4325;42.520;27.448;2024-02-21T02:44:16;101878.88;;;4.82;100.00
8575;BME280;4325;42.520;27.448;2024-02-21T02:46:43;101868.88;;;4.76;100.00
8575;BME280;4325;42.520;27.448;2024-02-21T02:49:10;101873.69;;;4.81;100.00
8575;BME280;4325;42.520;27.448;2024-02-21T02:51:41;101874.13;;;4.84;100.00
8575;BME280;4325;42.520;27.448;2024-02-21T02:54:08;101875.78;;;4.85;100.00
8575;BME280;4325;42.520;27.448;2024-02-21T02:56:35;101872.44;;;4.83;100.00
8575;BME280;4325;42.520;27.448;2024-02-21T02:59:04;101869.72;;;4.83;100.00
8575;BME280;4325;42.520;27.448;2024-02-21T03:01:33;101872.44;;;4.83;100.00
8575;BME280;4325;42.520;27.448;2024-02-21T03:04:01;101875.38;;;4.88;100.00
8575;BME280;4325;42.520;27.448;2024-02-21T03:06:28;101872.66;;;4.88;100.00
8575;BME280;4325;42.520;27.448;2024-02-21T03:08:55;101870.34;;;4.85;100.00
8575;BME280;4325;42.520;27.448;2024-02-21T03:11:22;101872.00;;;4.73;100.00
8575;BME280;4325;42.520;27.448;2024-02-21T03:13:54;101874.91;;;4.72;100.00
8575;BME280;4325;42.520;27.448;2024-02-21T03:16:23;101874.25;;;4.63;100.00
8575;BME280;4325;42.520;27.448;2024-02-21T03:18:50;101873.22;;;4.64;100.00
8575;BME280;4325;42.520;27.448;2024-02-21T03:21:17;101875.31;;;4.62;100.00
8575;BME280;4325;42.520;27.448;2024-02-21T03:23:44;101877.38;;;4.60;100.00
8575;BME280;4325;42.520;27.448;2024-02-21T03:26:11;101883.47;;;4.62;100.00
8575;BME280;4325;42.520;27.448;2024-02-21T03:28:42;101884.88;;;4.58;100.00
8575;BME280;4325;42.520;27.448;2024-02-21T03:31:11;101887.38;;;4.53;100.00
8575;BME280;4325;42.520;27.448;2024-02-21T03:33:39;101887.56;;;4.45;100.00
8575;BME280;4325;42.520;27.448;2024-02-21T03:36:07;101893.59;;;4.40;100.00
8575;BME280;4325;42.520;27.448;2024-02-21T03:38:39;101888.78;;;4.36;100.00
8575;BME280;4325;42.520;27.448;2024-02-21T03:41:06;101888.53;;;4.31;100.00
8575;BME280;4325;42.520;27.448;2024-02-21T03:43:33;101896.66;;;4.31;100.00
8575;BME280;4325;42.520;27.448;2024-02-21T03:46:00;101891.47;;;4.29;100.00
8575;BME280;4325;42.520;27.448;2024-02-21T03:48:28;101890.22;;;4.25;100.00
8575;BME280;4325;42.520;27.448;2024-02-21T03:50:56;101898.56;;;4.30;100.00
8575;BME280;4325;42.520;27.448;2024-02-21T03:53:23;101894.38;;;4.28;100.00
8575;BME280;4325;42.520;27.448;2024-02-21T03:55:50;101887.25;;;4.20;100.00
8575;BME280;4325;42.520;27.448;2024-02-21T03:58:17;101882.00;;;4.12;100.00
8575;BME280;4325;42.520;27.448;2024-02-21T04:00:44;101889.47;;;4.04;100.00
8575;BME280;4325;42.520;27.448;2024-02-21T04:03:11;101883.81;;;3.98;100.00
8575;BME280;4325;42.520;27.448;2024-02-21T04:05:38;101882.53;;;3.94;100.00
8575;BME280;4325;42.520;27.448;2024-02-21T04:08:07;101882.28;;;3.89;100.00
8575;BME280;4325;42.520;27.448;2024-02-21T04:10:34;101886.28;;;3.87;100.00
8575;BME280;4325;42.520;27.448;2024-02-21T04:13:01;101886.66;;;3.84;100.00
8575;BME280;4325;42.520;27.448;2024-02-21T04:15:28;101886.66;;;3.84;100.00
8575;BME280;4325;42.520;27.448;2024-02-21T04:17:55;101897.50;;;3.84;100.00
8575;BME280;4325;42.520;27.448;2024-02-21T04:20:22;101885.59;;;3.85;100.00
8575;BME280;4325;42.520;27.448;2024-02-21T04:22:50;101880.19;;;3.85;100.00
8575;BME280;4325;42.520;27.448;2024-02-21T04:25:18;101882.09;;;3.84;100.00
8575;BME280;4325;42.520;27.448;2024-02-21T04:27:46;101883.75;;;3.85;100.00
8575;BME280;4325;42.520;27.448;2024-02-21T04:30:13;101876.66;;;3.84;100.00
8575;BME280;4325;42.520;27.448;2024-02-21T04:32:41;101880.00;;;3.86;100.00
8575;BME280;4325;42.520;27.448;2024-02-21T04:35:08;101886.59;;;3.77;100.00
8575;BME280;4325;42.520;27.448;2024-02-21T04:37:35;101890.75;;;3.73;100.00
8575;BME280;4325;42.520;27.448;2024-02-21T04:40:03;101894.50;;;3.72;100.00
8575;BME280;4325;42.520;27.448;2024-02-21T04:42:31;101903.66;;;3.71;100.00
8575;BME280;4325;42.520;27.448;2024-02-21T04:44:58;101901.16;;;3.70;100.00
8575;BME280;4325;42.520;27.448;2024-02-21T04:47:25;101907.00;;;3.73;100.00
8575;BME280;4325;42.520;27.448;2024-02-21T04:49:53;101907.09;;;3.86;100.00
8575;BME280;4325;42.520;27.448;2024-02-21T04:52:20;101913.91;;;4.10;100.00
8575;BME280;4325;42.520;27.448;2024-02-21T04:54:47;101920.41;;;4.16;100.00
8575;BME280;4325;42.520;27.448;2024-02-21T04:57:14;101923.53;;;4.19;100.00
8575;BME280;4325;42.520;27.448;2024-02-21T04:59:44;101933.38;;;4.27;100.00
8575;BME280;4325;42.520;27.448;2024-02-21T05:02:12;101941.56;;;4.40;100.00
8575;BME280;4325;42.520;27.448;2024-02-21T05:04:39;101937.03;;;4.60;100.00
8575;BME280;4325;42.520;27.448;2024-02-21T05:07:07;101930.22;;;4.77;100.00
8575;BME280;4325;42.520;27.448;2024-02-21T05:09:36;101919.00;;;4.87;100.00
8575;BME280;4325;42.520;27.448;2024-02-21T05:12:04;101915.03;;;5.02;100.00
8575;BME280;4325;42.520;27.448;2024-02-21T05:14:31;101914.00;;;5.16;100.00
8575;BME280;4325;42.520;27.448;2024-02-21T05:16:59;101903.16;;;5.03;100.00
8575;BME280;4325;42.520;27.448;2024-02-21T05:19:26;101911.47;;;4.95;100.00
8575;BME280;4325;42.520;27.448;2024-02-21T05:21:53;101908.31;;;4.79;100.00
8575;BME280;4325;42.520;27.448;2024-02-21T05:24:20;101910.97;;;4.59;100.00
8575;BME280;4325;42.520;27.448;2024-02-21T05:26:47;101921.97;;;4.44;100.00
8575;BME280;4325;42.520;27.448;2024-02-21T05:29:14;101912.78;;;4.39;100.00
8575;BME280;4325;42.520;27.448;2024-02-21T05:31:55;101912.38;;;4.42;100.00
8575;BME280;4325;42.520;27.448;2024-02-21T05:34:24;101919.03;;;4.33;100.00
8575;BME280;4325;42.520;27.448;2024-02-21T05:36:52;101916.47;;;4.25;100.00
8575;BME280;4325;42.520;27.448;2024-02-21T05:39:19;101926.88;;;4.21;100.00
8575;BME280;4325;42.520;27.448;2024-02-21T05:41:48;101926.06;;;4.21;100.00
8575;BME280;4325;42.520;27.448;2024-02-21T05:44:16;101934.00;;;4.29;100.00
8575;BME280;4325;42.520;27.448;2024-02-21T05:46:43;101937.41;;;4.44;100.00
8575;BME280;4325;42.520;27.448;2024-02-21T05:49:11;101938.09;;;4.52;100.00
8575;BME280;4325;42.520;27.448;2024-02-21T05:51:39;101941.66;;;4.66;100.00
8575;BME280;4325;42.520;27.448;2024-02-21T05:54:06;101945.47;;;4.85;100.00
8575;BME280;4325;42.520;27.448;2024-02-21T05:56:34;101945.97;;;5.14;100.00
8575;BME280;4325;42.520;27.448;2024-02-21T05:59:01;101940.16;;;5.37;100.00
8575;BME280;4325;42.520;27.448;2024-02-21T06:01:28;101950.19;;;5.56;100.00
8575;BME280;4325;42.520;27.448;2024-02-21T06:03:55;101942.22;;;5.68;100.00
8575;BME280;4325;42.520;27.448;2024-02-21T06:06:22;101944.72;;;5.76;100.00
8575;BME280;4325;42.520;27.448;2024-02-21T06:08:50;101950.16;;;5.76;100.00
8575;BME280;4325;42.520;27.448;2024-02-21T06:11:17;101955.19;;;5.72;100.00
8575;BME280;4325;42.520;27.448;2024-02-21T06:13:44;101959.59;;;5.67;100.00
8575;BME280;4325;42.520;27.448;2024-02-21T06:16:12;101960.41;;;5.74;100.00
8575;BME280;4325;42.520;27.448;2024-02-21T06:18:39;101962.50;;;5.78;100.00
8575;BME280;4325;42.520;27.448;2024-02-21T06:21:06;101961.88;;;5.83;100.00
8575;BME280;4325;42.520;27.448;2024-02-21T06:23:33;101957.28;;;5.90;100.00
8575;BME280;4325;42.520;27.448;2024-02-21T06:26:01;101953.94;;;5.94;100.00
8575;BME280;4325;42.520;27.448;2024-02-21T06:28:28;101956.88;;;5.93;100.00
8575;BME280;4325;42.520;27.448;2024-02-21T06:30:55;101962.28;;;5.99;100.00
8575;BME280;4325;42.520;27.448;2024-02-21T06:33:22;101954.75;;;6.08;100.00
8575;BME280;4325;42.520;27.448;2024-02-21T06:35:50;101955.16;;;6.12;100.00
8575;BME280;4325;42.520;27.448;2024-02-21T06:38:19;101957.03;;;6.11;100.00
8575;BME280;4325;42.520;27.448;2024-02-21T06:40:46;101959.75;;;6.11;100.00
8575;BME280;4325;42.520;27.448;2024-02-21T06:43:20;101958.53;;;5.94;100.00
8575;BME280;4325;42.520;27.448;2024-02-21T06:45:47;101960.63;;;5.66;100.00
8575;BME280;4325;42.520;27.448;2024-02-21T06:48:17;101962.72;;;5.64;100.00
8575;BME280;4325;42.520;27.448;2024-02-21T06:50:45;101965.22;;;5.65;100.00
8575;BME280;4325;42.520;27.448;2024-02-21T06:53:12;101965.22;;;5.85;100.00
8575;BME280;4325;42.520;27.448;2024-02-21T06:55:39;101958.50;;;6.07;100.00
8575;BME280;4325;42.520;27.448;2024-02-21T06:58:06;101954.84;;;6.46;100.00
8575;BME280;4325;42.520;27.448;2024-02-21T07:00:38;101969.50;;;6.96;100.00
8575;BME280;4325;42.520;27.448;2024-02-21T07:03:05;101966.19;;;7.50;100.00
8575;BME280;4325;42.520;27.448;2024-02-21T07:05:33;101967.88;;;7.75;100.00
8575;BME280;4325;42.520;27.448;2024-02-21T07:08:00;101964.69;;;7.78;100.00
8575;BME280;4325;42.520;27.448;2024-02-21T07:10:27;101971.81;;;7.79;100.00
8575;BME280;4325;42.520;27.448;2024-02-21T07:12:55;101975.91;;;7.88;100.00
8575;BME280;4325;42.520;27.448;2024-02-21T07:15:22;101972.91;;;7.96;100.00
8575;BME280;4325;42.520;27.448;2024-02-21T07:17:53;101970.75;;;8.05;100.00
8575;BME280;4325;42.520;27.448;2024-02-21T07:20:20;101962.06;;;8.33;100.00
8575;BME280;4325;42.520;27.448;2024-02-21T07:22:47;101974.38;;;8.42;100.00
8575;BME280;4325;42.520;27.448;2024-02-21T07:25:14;101970.88;;;8.53;100.00
8575;BME280;4325;42.520;27.448;2024-02-21T07:27:43;101969.50;;;8.62;100.00
8575;BME280;4325;42.520;27.448;2024-02-21T07:30:10;101973.44;;;8.66;100.00
8575;BME280;4325;42.520;27.448;2024-02-21T07:32:37;101968.44;;;8.63;100.00
8575;BME280;4325;42.520;27.448;2024-02-21T07:35:06;101971.78;;;8.65;100.00
8575;BME280;4325;42.520;27.448;2024-02-21T07:37:36;101968.44;;;8.63;100.00
8575;BME280;4325;42.520;27.448;2024-02-21T07:40:05;101972.56;;;8.54;100.00
8575;BME280;4325;42.520;27.448;2024-02-21T07:42:32;101968.06;;;8.41;100.00
8575;BME280;4325;42.520;27.448;2024-02-21T07:44:59;101971.91;;;8.52;100.00
8575;BME280;4325;42.520;27.448;2024-02-21T07:47:26;101976.63;;;8.63;100.00
8575;BME280;4325;42.520;27.448;2024-02-21T07:49:53;101975.13;;;8.97;100.00
8575;BME280;4325;42.520;27.448;2024-02-21T07:52:22;101977.84;;;9.15;100.00
8575;BME280;4325;42.520;27.448;2024-02-21T07:54:50;101971.00;;;9.36;100.00
8575;BME280;4325;42.520;27.448;2024-02-21T07:57:17;101978.91;;;9.78;100.00
8575;BME280;4325;42.520;27.448;2024-02-21T07:59:44;101968.28;;;10.75;100.00
8575;BME280;4325;42.520;27.448;2024-02-21T08:02:13;101957.97;;;12.38;100.00
8575;BME280;4325;42.520;27.448;2024-02-21T08:04:40;101965.19;;;12.87;91.24
8575;BME280;4325;42.520;27.448;2024-02-21T08:07:07;101968.81;;;13.41;79.60
8575;BME280;4325;42.520;27.448;2024-02-21T08:09:36;101969.66;;;13.42;76.17
8575;BME280;4325;42.520;27.448;2024-02-21T08:12:04;101967.63;;;12.84;79.56
8575;BME280;4325;42.520;27.448;2024-02-21T08:14:31;101968.81;;;12.93;81.58
8575;BME280;4325;42.520;27.448;2024-02-21T08:16:58;101979.66;;;13.53;82.89
8575;BME280;4325;42.520;27.448;2024-02-21T08:19:25;101975.25;;;13.52;74.64
8575;BME280;4325;42.520;27.448;2024-02-21T08:21:52;101957.75;;;13.36;76.95
8575;BME280;4325;42.520;27.448;2024-02-21T08:24:19;101961.63;;;14.04;78.25
8575;BME280;4325;42.520;27.448;2024-02-21T08:26:49;101967.34;;;13.29;75.90
8575;BME280;4325;42.520;27.448;2024-02-21T08:29:16;101962.34;;;13.04;78.61
8575;BME280;4325;42.520;27.448;2024-02-21T08:31:45;101965.19;;;13.36;78.58
8575;BME280;4325;42.520;27.448;2024-02-21T08:34:12;101961.84;;;13.97;78.41
8575;BME280;4325;42.520;27.448;2024-02-21T08:36:39;101959.00;;;13.82;73.18
8575;BME280;4325;42.520;27.448;2024-02-21T08:39:06;101961.00;;;14.33;71.15
8575;BME280;4325;42.520;27.448;2024-02-21T08:41:35;101964.13;;;15.19;75.00
8575;BME280;4325;42.520;27.448;2024-02-21T08:44:03;101960.88;;;16.08;64.36
8575;BME280;4325;42.520;27.448;2024-02-21T08:46:30;101971.22;;;16.81;58.64
8575;BME280;4325;42.520;27.448;2024-02-21T08:48:57;101964.16;;;15.44;60.07
8575;BME280;4325;42.520;27.448;2024-02-21T08:51:25;101965.16;;;14.93;64.01
8575;BME280;4325;42.520;27.448;2024-02-21T08:53:52;101964.44;;;13.72;70.94
8575;BME280;4325;42.520;27.448;2024-02-21T08:56:19;101966.84;;;13.37;74.42
8575;BME280;4325;42.520;27.448;2024-02-21T08:58:46;101967.00;;;13.83;74.87
8575;BME280;4325;42.520;27.448;2024-02-21T09:01:15;101965.16;;;14.31;70.46
8575;BME280;4325;42.520;27.448;2024-02-21T09:03:42;101962.09;;;14.84;71.72
8575;BME280;4325;42.520;27.448;2024-02-21T09:06:10;101966.38;;;16.33;63.61
8575;BME280;4325;42.520;27.448;2024-02-21T09:08:39;101961.94;;;17.50;56.69
8575;BME280;4325;42.520;27.448;2024-02-21T09:11:06;101961.63;;;20.34;48.58
8575;BME280;4325;42.520;27.448;2024-02-21T09:13:33;101962.75;;;20.87;44.27
8575;BME280;4325;42.520;27.448;2024-02-21T09:16:00;101958.56;;;21.26;42.96
8575;BME280;4325;42.520;27.448;2024-02-21T09:18:29;101952.66;;;21.41;42.58
8575;BME280;4325;42.520;27.448;2024-02-21T09:20:56;101960.38;;;21.44;41.59
8575;BME280;4325;42.520;27.448;2024-02-21T09:23:24;101955.31;;;22.91;41.05
8575;BME280;4325;42.520;27.448;2024-02-21T09:25:51;101952.97;;;26.00;35.80
8575;BME280;4325;42.520;27.448;2024-02-21T09:28:18;101955.00;;;26.69;33.10
8575;BME280;4325;42.520;27.448;2024-02-21T09:30:46;101963.41;;;24.59;34.70
8575;BME280;4325;42.520;27.448;2024-02-21T09:33:13;101952.28;;;23.70;36.62
8575;BME280;4325;42.520;27.448;2024-02-21T09:35:41;101959.25;;;22.81;37.56
8575;BME280;4325;42.520;27.448;2024-02-21T09:38:08;101959.63;;;22.58;39.41
8575;BME280;4325;42.520;27.448;2024-02-21T09:40:35;101955.44;;;21.05;40.51
8575;BME280;4325;42.520;27.448;2024-02-21T09:43:04;101949.75;;;19.96;42.46
8575;BME280;4325;42.520;27.448;2024-02-21T09:45:33;101956.28;;;18.27;45.72
8575;BME280;4325;42.520;27.448;2024-02-21T09:50:59;101956.22;;;17.75;49.08
8575;BME280;4325;42.520;27.448;2024-02-21T09:53:27;101949.59;;;17.76;49.46
8575;BME280;4325;42.520;27.448;2024-02-21T09:55:55;101935.31;;;19.48;48.53
8575;BME280;4325;42.520;27.448;2024-02-21T09:58:23;101932.88;;;21.29;42.91
8575;BME280;4325;42.520;27.448;2024-02-21T10:00:53;101938.72;;;21.63;40.69
8575;BME280;4325;42.520;27.448;2024-02-21T10:03:20;101931.94;;;20.70;42.09
8575;BME280;4325;42.520;27.448;2024-02-21T10:05:48;101935.19;;;21.13;43.29
8575;BME280;4325;42.520;27.448;2024-02-21T10:08:18;101934.16;;;21.67;42.78
8575;BME280;4325;42.520;27.448;2024-02-21T10:10:46;101936.56;;;22.04;41.06
8575;BME280;4325;42.520;27.448;2024-02-21T10:13:24;101940.22;;;21.69;40.68
8575;BME280;4325;42.520;27.448;2024-02-21T10:16:01;101930.78;;;21.56;40.88
8575;BME280;4325;42.520;27.448;2024-02-21T10:18:28;101935.38;;;21.17;40.07
8575;BME280;4325;42.520;27.448;2024-02-21T10:21:05;101920.75;;;20.97;40.02
8575;BME280;4325;42.520;27.448;2024-02-21T10:23:49;101923.56;;;21.33;41.66
8575;BME280;4325;42.520;27.448;2024-02-21T10:26:17;101915.38;;;19.92;41.12
8575;BME280;4325;42.520;27.448;2024-02-21T10:28:45;101922.88;;;18.37;44.11
8575;BME280;4325;42.520;27.448;2024-02-21T10:31:21;101906.75;;;18.44;45.23
8575;BME280;4325;42.520;27.448;2024-02-21T10:33:54;101904.34;;;18.09;45.12
8575;BME280;4325;42.520;27.448;2024-02-21T10:36:21;101903.31;;;17.76;45.75
8575;BME280;4325;42.520;27.448;2024-02-21T10:38:50;101896.63;;;18.06;46.19
8575;BME280;4325;42.520;27.448;2024-02-21T10:41:19;101888.66;;;18.23;44.82
8575;BME280;4325;42.520;27.448;2024-02-21T10:43:49;101890.38;;;18.67;43.94
8575;BME280;4325;42.520;27.448;2024-02-21T10:46:19;101882.50;;;19.48;43.24
8575;BME280;4325;42.520;27.448;2024-02-21T10:48:47;101879.78;;;20.62;40.78
8575;BME280;4325;42.520;27.448;2024-02-21T10:51:16;101878.47;;;22.46;37.12
8575;BME280;4325;42.520;27.448;2024-02-21T10:53:47;101867.75;;;21.25;37.75
8575;BME280;4325;42.520;27.448;2024-02-21T10:56:22;101870.53;;;21.69;36.53
8575;BME280;4325;42.520;27.448;2024-02-21T10:58:50;101864.34;;;21.50;36.07
8575;BME280;4325;42.520;27.448;2024-02-21T11:01:18;101864.34;;;21.72;35.22
8575;BME280;4325;42.520;27.448;2024-02-21T11:03:47;101866.88;;;21.60;35.48
8575;BME280;4325;42.520;27.448;2024-02-21T11:06:16;101857.81;;;21.10;36.33
8575;BME280;4325;42.520;27.448;2024-02-21T11:08:44;101859.28;;;21.30;36.35
8575;BME280;4325;42.520;27.448;2024-02-21T11:11:12;101852.22;;;21.46;35.76
8575;BME280;4325;42.520;27.448;2024-02-21T11:13:44;101852.84;;;21.43;35.91
8575;BME280;4325;42.520;27.448;2024-02-21T11:16:23;101854.09;;;21.15;35.65
8575;BME280;4325;42.520;27.448;2024-02-21T11:18:50;101854.38;;;21.49;35.16
8575;BME280;4325;42.520;27.448;2024-02-21T11:21:17;101840.28;;;21.54;35.15
8575;BME280;4325;42.520;27.448;2024-02-21T11:23:54;101837.56;;;21.93;34.43
8575;BME280;4325;42.520;27.448;2024-02-21T11:26:23;101835.84;;;23.22;32.90
8575;BME280;4325;42.520;27.448;2024-02-21T11:28:58;101832.75;;;24.92;30.38
8575;BME280;4325;42.520;27.448;2024-02-21T11:31:26;101837.44;;;26.10;29.19
8575;BME280;4325;42.520;27.448;2024-02-21T11:33:53;101841.88;;;24.80;30.09
8575;BME280;4325;42.520;27.448;2024-02-21T11:36:25;101839.72;;;25.07;30.06
8575;BME280;4325;42.520;27.448;2024-02-21T11:38:52;101823.91;;;26.25;28.61
8575;BME280;4325;42.520;27.448;2024-02-21T11:41:19;101822.34;;;28.18;26.13
8575;BME280;4325;42.520;27.448;2024-02-21T11:43:48;101826.06;;;28.37;25.59
8575;BME280;4325;42.520;27.448;2024-02-21T11:46:18;101829.28;;;26.17;28.17
8575;BME280;4325;42.520;27.448;2024-02-21T11:48:46;101824.69;;;25.89;28.35
8575;BME280;4325;42.520;27.448;2024-02-21T11:51:21;101822.09;;;27.20;27.26
8575;BME280;4325;42.520;27.448;2024-02-21T11:53:51;101822.34;;;28.84;26.13
8575;BME280;4325;42.520;27.448;2024-02-21T11:56:18;101820.06;;;27.33;26.89
8575;BME280;4325;42.520;27.448;2024-02-21T11:58:46;101810.00;;;28.72;26.36
8575;BME280;4325;42.520;27.448;2024-02-21T12:01:13;101801.50;;;29.26;24.89
8575;BME280;4325;42.520;27.448;2024-02-21T12:03:43;101805.09;;;30.89;24.67
8575;BME280;4325;42.520;27.448;2024-02-21T12:06:16;101807.28;;;31.73;23.14
8575;BME280;4325;42.520;27.448;2024-02-21T12:08:47;101808.47;;;30.72;23.54
8575;BME280;4325;42.520;27.448;2024-02-21T12:11:19;101804.00;;;29.31;24.24
8575;BME280;4325;42.520;27.448;2024-02-21T12:13:46;101793.44;;;27.58;26.09
8575;BME280;4325;42.520;27.448;2024-02-21T12:16:15;101801.06;;;26.38;27.08
8575;BME280;4325;42.520;27.448;2024-02-21T12:18:45;101792.16;;;25.88;27.97
8575;BME280;4325;42.520;27.448;2024-02-21T12:21:12;101785.47;;;24.61;29.26
8575;BME280;4325;42.520;27.448;2024-02-21T12:23:39;101780.69;;;24.12;29.60
8575;BME280;4325;42.520;27.448;2024-02-21T12:26:06;101769.06;;;22.18;32.43
8575;BME280;4325;42.520;27.448;2024-02-21T12:28:33;101768.13;;;22.40;32.23
8575;BME280;4325;42.520;27.448;2024-02-21T12:31:01;101761.13;;;25.15;29.72
8575;BME280;4325;42.520;27.448;2024-02-21T12:33:30;101764.56;;;26.50;27.43
8575;BME280;4325;42.520;27.448;2024-02-21T12:36:00;101765.63;;;25.85;27.37
8575;BME280;4325;42.520;27.448;2024-02-21T12:38:27;101766.56;;;25.65;27.63
8575;BME280;4325;42.520;27.448;2024-02-21T12:40:54;101755.94;;;26.83;26.38
8575;BME280;4325;42.520;27.448;2024-02-21T12:43:22;101758.66;;;28.48;25.31
8575;BME280;4325;42.520;27.448;2024-02-21T12:45:49;101758.78;;;29.28;24.24
8575;BME280;4325;42.520;27.448;2024-02-21T12:48:16;101762.03;;;27.72;24.91
8575;BME280;4325;42.520;27.448;2024-02-21T12:50:48;101757.66;;;24.56;27.74
8575;BME280;4325;42.520;27.448;2024-02-21T12:53:17;101764.25;;;21.31;31.61
8575;BME280;4325;42.520;27.448;2024-02-21T12:55:47;101765.78;;;18.52;36.89
8575;BME280;4325;42.520;27.448;2024-02-21T12:58:14;101760.59;;;17.55;39.77
8575;BME280;4325;42.520;27.448;2024-02-21T13:00:42;101760.56;;;16.10;42.50
8575;BME280;4325;42.520;27.448;2024-02-21T13:03:10;101756.56;;;15.72;43.64
8575;BME280;4325;42.520;27.448;2024-02-21T13:05:37;101758.28;;;15.48;44.54
8575;BME280;4325;42.520;27.448;2024-02-21T13:08:05;101748.13;;;15.18;44.81